Time;durP1;ratioP1;P1;durP2;ratioP2;P2;SDS_P1;SDS_P2;PMS_P1;PMS_P2;Temp;Humidity;BMP_temperature;BMP_pressure;BME280_temperature;BME280_humidity;BME280_pressure;Samples;Min_cycle;Max_cycle;Signal;HPM_P1;HPM_P2
2022/07/10 00:00:46;;;;;;;5.30;1.50;;;16.10;99.90;;;15.44;100.00;98311.56;5022773;28;20140;-63
2022/07/10 00:03:14;;;;;;;5.93;1.70;;;16.00;99.90;;;15.45;100.00;98310.59;5022433;28;20056;-65
2022/07/10 00:05:41;;;;;;;4.00;1.25;;;16.00;99.90;;;15.42;100.00;98308.16;5023616;28;20501;-64
2022/07/10 00:08:08;;;;;;;3.50;1.02;;;16.00;99.90;;;15.34;100.00;98304.22;5003613;28;20049;-63
2022/07/10 00:10:36;;;;;;;4.82;1.20;;;15.90;99.90;;;15.39;100.00;98305.69;5022466;28;20128;-64
2022/07/10 00:13:03;;;;;;;5.25;1.30;;;15.90;99.90;;;15.36;100.00;98313.69;5022147;28;20076;-64
2022/07/10 00:15:31;;;;;;;5.93;1.35;;;15.90;99.90;;;15.30;100.00;98314.00;5023475;28;20053;-63
2022/07/10 00:17:59;;;;;;;4.28;1.65;;;15.80;99.90;;;15.26;100.00;98320.31;5022474;28;20143;-64
2022/07/10 00:20:26;;;;;;;4.97;1.05;;;15.80;99.90;;;15.24;100.00;98315.16;5019186;28;20057;-63
2022/07/10 00:22:54;;;;;;;3.17;1.00;;;15.80;99.90;;;15.23;100.00;98315.22;5022208;28;20076;-63
2022/07/10 00:25:28;;;;;;;5.68;1.05;;;15.80;99.90;;;15.16;100.00;98312.06;5023052;28;20596;-64
2022/07/10 00:27:55;;;;;;;2.97;1.05;;;15.80;99.90;;;15.16;100.00;98316.44;5023747;28;20052;-64
2022/07/10 00:30:23;;;;;;;6.25;1.23;;;15.70;99.90;;;15.12;100.00;98310.53;5022237;28;20132;-62
2022/07/10 00:32:50;;;;;;;10.88;1.10;;;15.70;99.90;;;15.06;100.00;98316.06;5014807;28;20594;-64
2022/07/10 00:35:17;;;;;;;8.15;1.20;;;15.70;99.90;;;15.07;100.00;98320.34;5006713;28;20089;-63
2022/07/10 00:37:44;;;;;;;4.30;1.10;;;15.60;99.90;;;14.97;100.00;98316.50;5023620;28;20051;-63
2022/07/10 00:40:12;;;;;;;3.05;1.00;;;15.60;99.90;;;14.90;100.00;98323.81;5023427;28;20107;-64
2022/07/10 00:42:39;;;;;;;4.35;1.30;;;15.50;99.90;;;14.90;100.00;98325.56;5021894;28;20519;-64
2022/07/10 00:45:07;;;;;;;4.80;1.30;;;15.40;99.90;;;14.83;100.00;98319.78;5022673;28;20049;-64
2022/07/10 00:47:34;;;;;;;3.92;1.30;;;15.40;99.90;;;14.75;100.00;98320.16;5022662;28;20164;-64
2022/07/10 00:50:01;;;;;;;7.43;1.20;;;15.40;99.90;;;14.73;100.00;98326.38;5023402;28;20051;-63
2022/07/10 00:52:28;;;;;;;8.55;1.48;;;15.30;99.90;;;14.71;100.00;98329.06;5023225;28;20049;-64
2022/07/10 00:54:56;;;;;;;6.03;1.30;;;15.30;99.90;;;14.70;100.00;98329.13;5006502;28;20107;-64
2022/07/10 00:57:23;;;;;;;6.35;1.10;;;15.30;99.90;;;14.68;100.00;98333.59;5008354;28;20375;-64
2022/07/10 00:59:52;;;;;;;5.03;1.17;;;15.20;99.90;;;14.62;100.00;98330.34;5009394;28;20052;-64
2022/07/10 01:02:19;;;;;;;6.40;1.08;;;15.20;99.90;;;14.60;100.00;98329.56;5022790;28;20053;-64
2022/07/10 01:04:47;;;;;;;6.85;1.23;;;15.20;99.90;;;14.62;100.00;98338.19;5022971;28;20052;-64
2022/07/10 01:07:15;;;;;;;10.60;1.40;;;15.20;99.90;;;14.55;100.00;98338.53;5022110;28;20220;-64
2022/07/10 01:09:43;;;;;;;8.27;1.17;;;15.10;99.90;;;14.49;100.00;98323.13;5008087;28;20103;-64
2022/07/10 01:12:12;;;;;;;10.55;1.48;;;15.10;99.90;;;14.43;100.00;98330.31;5005891;28;20133;-64
2022/07/10 01:14:40;;;;;;;6.00;1.25;;;15.00;99.90;;;14.38;100.00;98327.06;5006082;28;20045;-64
2022/07/10 01:17:11;;;;;;;5.05;1.70;;;15.00;99.90;;;14.33;100.00;98333.44;5023230;28;20092;-64
2022/07/10 01:19:38;;;;;;;5.47;1.15;;;15.00;99.90;;;14.36;100.00;98334.13;5024434;28;20113;-64
2022/07/10 01:22:05;;;;;;;4.40;1.15;;;14.90;99.90;;;14.34;100.00;98330.72;5023848;28;20623;-64
2022/07/10 01:24:32;;;;;;;5.47;1.05;;;14.90;99.90;;;14.32;100.00;98339.56;5024453;28;20257;-65
2022/07/10 01:26:59;;;;;;;6.88;1.30;;;14.80;99.90;;;14.29;100.00;98337.94;5023241;28;20141;-65
2022/07/10 01:29:29;;;;;;;8.15;1.15;;;14.90;99.90;;;14.20;100.00;98339.19;5008024;28;20088;-62
2022/07/10 01:31:56;;;;;;;5.93;1.50;;;14.80;99.90;;;14.20;100.00;98343.56;5022652;28;20096;-64
2022/07/10 01:34:23;;;;;;;4.30;1.10;;;14.80;99.90;;;14.12;100.00;98350.91;5023914;28;20049;-64
2022/07/10 01:36:51;;;;;;;4.80;1.25;;;14.80;99.90;;;14.05;100.00;98352.94;5022693;28;20163;-64
2022/07/10 01:39:18;;;;;;;8.05;1.48;;;14.70;99.90;;;14.10;100.00;98350.97;5024942;28;20505;-64
2022/07/10 01:41:45;;;;;;;4.68;1.27;;;14.70;99.90;;;14.02;100.00;98353.91;5020225;28;20140;-64
2022/07/10 01:44:12;;;;;;;9.38;1.77;;;14.70;99.90;;;13.92;100.00;98357.00;5024844;28;20079;-64
2022/07/10 01:46:48;;;;;;;4.22;1.15;;;14.60;99.90;;;13.93;100.00;98362.16;5013638;28;20483;-64
2022/07/10 01:49:15;;;;;;;6.03;1.23;;;14.50;99.90;;;13.87;100.00;98358.97;5028080;28;20053;-63
2022/07/10 01:51:43;;;;;;;4.55;1.30;;;14.50;99.90;;;13.90;100.00;98362.28;5029291;28;20128;-63
2022/07/10 01:54:10;;;;;;;5.85;1.17;;;14.50;99.90;;;13.89;100.00;98360.59;5025886;28;20058;-64
2022/07/10 01:56:38;;;;;;;3.95;1.20;;;14.50;99.90;;;13.83;100.00;98365.25;5022507;28;20045;-64
2022/07/10 01:59:05;;;;;;;5.60;1.10;;;14.40;99.90;;;13.74;100.00;98367.31;5026876;28;20147;-65
2022/07/10 02:01:32;;;;;;;4.22;1.25;;;14.40;99.90;;;13.72;100.00;98370.91;5027145;28;20052;-64
2022/07/10 02:06:45;;;;;;;3.75;1.00;;;14.40;99.90;;;13.52;100.00;98369.13;5026141;28;20045;-64
2022/07/10 02:09:12;;;;;;;4.05;1.00;;;14.20;99.90;;;13.54;100.00;98372.53;5026452;28;20465;-64
2022/07/10 02:11:39;;;;;;;6.32;1.50;;;14.30;99.90;;;13.51;100.00;98373.50;5011486;28;20473;-63
2022/07/10 02:14:08;;;;;;;7.28;1.27;;;14.30;99.90;;;13.55;100.00;98367.25;5026645;28;20041;-65
2022/07/10 02:16:35;;;;;;;6.00;1.38;;;14.20;99.90;;;13.35;100.00;98365.47;5023690;28;20049;-65
2022/07/10 02:19:03;;;;;;;5.38;1.15;;;14.20;99.90;;;13.50;100.00;98368.34;5028210;28;20124;-64
2022/07/10 02:21:30;;;;;;;6.18;1.40;;;14.20;99.90;;;13.52;100.00;98364.75;5026402;28;20049;-64
2022/07/10 02:23:57;;;;;;;6.70;1.20;;;14.20;99.90;;;13.51;100.00;98370.91;5024859;28;20152;-64
2022/07/10 02:26:24;;;;;;;4.60;1.00;;;14.10;99.90;;;13.58;100.00;98371.50;5025332;28;20052;-63
2022/07/10 02:28:51;;;;;;;3.35;1.10;;;14.20;99.90;;;13.70;100.00;98367.50;5028178;28;20156;-64
2022/07/10 02:31:18;;;;;;;5.15;1.10;;;14.20;99.90;;;13.69;100.00;98364.06;5025964;28;20041;-65
2022/07/10 02:33:45;;;;;;;3.47;1.20;;;14.30;99.90;;;13.60;100.00;98364.47;5026089;28;20052;-64
2022/07/10 02:36:12;;;;;;;5.05;1.50;;;14.30;99.90;;;13.50;100.00;98370.97;5026300;28;20402;-65
2022/07/10 02:38:39;;;;;;;5.15;1.17;;;14.30;99.90;;;13.48;100.00;98365.81;5023700;28;20047;-65
2022/07/10 02:41:07;;;;;;;3.47;1.05;;;;;;;13.36;100.00;98361.09;5025222;28;20053;-64
2022/07/10 02:43:34;;;;;;;3.42;1.00;;;14.00;99.90;;;13.34;100.00;98358.56;5025666;28;20045;-64
2022/07/10 02:46:01;;;;;;;5.22;1.20;;;14.00;99.90;;;13.20;100.00;98358.25;5025442;28;20481;-64
2022/07/10 02:48:29;;;;;;;4.18;1.30;;;13.90;99.90;;;13.18;100.00;98360.06;5012108;28;20045;-64
2022/07/10 02:50:56;;;;;;;7.35;1.83;;;13.80;99.90;;;13.17;100.00;98366.19;5025754;28;20050;-64
2022/07/10 02:53:23;;;;;;;8.38;1.80;;;13.80;99.90;;;13.22;100.00;98359.03;5024565;28;20072;-64
2022/07/10 02:55:50;;;;;;;5.28;1.95;;;13.80;99.90;;;13.14;100.00;98353.31;5023684;28;20136;-65
2022/07/10 02:58:17;;;;;;;7.55;2.22;;;13.70;99.90;;;13.11;100.00;98356.88;5022603;28;20049;-64
2022/07/10 03:00:44;;;;;;;5.70;1.63;;;13.70;99.90;;;13.17;100.00;98355.78;5023783;28;20068;-65
2022/07/10 03:03:12;;;;;;;7.65;2.03;;;13.70;99.90;;;13.12;100.00;98357.72;5022565;28;20472;-64
2022/07/10 03:05:43;;;;;;;4.95;1.95;;;13.70;99.90;;;13.03;100.00;98358.94;5024626;28;20049;-64
2022/07/10 03:08:10;;;;;;;6.10;2.00;;;13.60;99.90;;;13.07;100.00;98357.91;5027165;28;20075;-65
2022/07/10 03:10:40;;;;;;;6.25;1.90;;;13.60;99.90;;;13.03;100.00;98366.75;5026911;28;20069;-64
2022/07/10 03:13:07;;;;;;;8.27;2.22;;;13.60;99.90;;;12.97;100.00;98365.22;5013590;28;20041;-65
2022/07/10 03:15:35;;;;;;;6.85;2.60;;;13.60;99.90;;;12.99;100.00;98365.19;5023608;28;20048;-65
2022/07/10 03:18:02;;;;;;;6.35;3.05;;;13.60;99.90;;;12.97;100.00;98370.44;5024035;28;20592;-64
2022/07/10 03:20:29;;;;;;;7.00;2.72;;;13.60;99.90;;;12.95;100.00;98372.28;5024646;28;20049;-64
2022/07/10 03:22:56;;;;;;;7.25;2.72;;;13.50;99.90;;;12.89;100.00;98366.47;5025325;28;20067;-64
2022/07/10 03:25:23;;;;;;;8.27;3.15;;;13.50;99.90;;;12.84;100.00;98364.03;5025473;28;20523;-65
2022/07/10 03:27:50;;;;;;;10.55;2.55;;;13.50;99.90;;;12.80;100.00;98366.81;5025485;28;20045;-64
2022/07/10 03:30:17;;;;;;;9.05;2.42;;;13.40;99.90;;;12.79;100.00;98376.38;5026974;28;20096;-66
2022/07/10 03:32:43;;;;;;;8.63;2.58;;;13.40;99.90;;;12.76;100.00;98379.94;5025263;28;20060;-64
2022/07/10 03:35:10;;;;;;;7.00;2.50;;;13.40;99.90;;;12.75;100.00;98369.59;5026290;28;20137;-65
2022/07/10 03:37:37;;;;;;;6.20;2.63;;;13.30;99.90;;;12.68;100.00;98370.72;5021959;28;20049;-65
2022/07/10 03:40:05;;;;;;;5.80;2.50;;;13.30;99.90;;;12.67;100.00;98374.25;5026102;28;20161;-65
2022/07/10 03:42:32;;;;;;;8.52;2.60;;;13.30;99.90;;;12.62;100.00;98358.81;5023517;28;20051;-64
2022/07/10 03:44:59;;;;;;;6.53;2.00;;;13.30;99.90;;;12.58;100.00;98372.84;5026492;28;20080;-65
2022/07/10 03:47:26;;;;;;;9.25;2.55;;;13.20;99.90;;;12.55;100.00;98367.75;5022538;28;20211;-63
2022/07/10 03:49:53;;;;;;;4.78;2.03;;;13.20;99.90;;;12.61;100.00;98370.09;5026195;28;20057;-64
2022/07/10 03:52:20;;;;;;;6.43;2.25;;;13.20;99.90;;;12.68;100.00;98373.31;5025350;28;20667;-64
2022/07/10 03:54:47;;;;;;;5.60;2.28;;;13.20;99.90;;;12.65;100.00;98366.47;5024415;28;20045;-64
2022/07/10 03:59:59;;;;;;;8.25;2.50;;;13.20;99.90;;;12.49;100.00;98371.41;5024176;28;20132;-62
2022/07/10 04:02:26;;;;;;;7.22;1.98;;;13.20;99.90;;;12.52;100.00;98368.72;5023942;28;20430;-63
2022/07/10 04:04:53;;;;;;;6.18;1.95;;;13.20;99.90;;;12.52;100.00;98371.34;5024119;28;20432;-63
2022/07/10 04:07:20;;;;;;;6.95;1.92;;;13.20;99.90;;;12.50;100.00;98370.53;5024229;28;20049;-64
2022/07/10 04:09:47;;;;;;;4.28;1.88;;;13.20;99.90;;;12.55;100.00;98373.81;5023292;28;20068;-64
2022/07/10 04:12:14;;;;;;;6.82;1.55;;;13.20;99.90;;;12.56;100.00;98369.44;5024091;28;20460;-64
2022/07/10 04:14:41;;;;;;;4.25;1.40;;;13.20;99.90;;;12.55;100.00;98370.38;5023053;28;20134;-64
2022/07/10 04:17:08;;;;;;;3.45;1.50;;;13.20;99.90;;;12.61;100.00;98369.25;5026257;28;20081;-65
2022/07/10 04:19:35;;;;;;;4.65;1.73;;;13.20;99.90;;;12.61;100.00;98375.31;5024859;28;20142;-64
2022/07/10 04:22:02;;;;;;;4.80;1.52;;;13.30;99.90;;;12.68;100.00;98358.56;5023975;28;20048;-64
2022/07/10 04:24:29;;;;;;;6.63;1.35;;;13.30;99.90;;;12.84;100.00;98361.44;5025171;28;20128;-63
2022/07/10 04:26:56;;;;;;;7.43;1.40;;;13.40;99.90;;;12.92;100.00;98358.50;5025611;28;20060;-65
2022/07/10 04:29:27;;;;;;;6.63;1.40;;;13.50;99.90;;;12.89;100.00;98361.25;5026095;28;20047;-63
2022/07/10 04:31:54;;;;;;;6.70;1.23;;;13.60;99.90;;;12.90;100.00;98353.34;5023541;28;20075;-64
2022/07/10 04:34:21;;;;;;;4.07;1.10;;;13.60;99.90;;;12.84;100.00;98352.75;5022159;28;20053;-63
2022/07/10 04:36:51;;;;;;;4.88;1.55;;;13.60;99.90;;;12.86;100.00;98363.97;5023321;28;20046;-64
2022/07/10 04:39:18;;;;;;;3.85;1.17;;;13.60;99.90;;;12.83;100.00;98362.31;5025404;28;20124;-64
2022/07/10 04:41:45;;;;;;;8.93;1.55;;;13.60;99.90;;;12.81;100.00;98361.53;5023800;28;20128;-64
2022/07/10 04:44:12;;;;;;;5.03;1.30;;;13.80;99.90;;;12.95;100.00;98360.97;5025453;28;20133;-63
2022/07/10 04:46:39;;;;;;;5.47;1.50;;;13.70;99.90;;;12.92;100.00;98375.00;5008737;28;20049;-64
2022/07/10 04:49:06;;;;;;;5.50;1.30;;;13.80;99.90;;;13.02;100.00;98372.84;5024509;28;20075;-65
2022/07/10 04:51:32;;;;;;;7.72;1.60;;;13.90;99.90;;;12.98;100.00;98369.53;5024712;28;20129;-64
2022/07/10 04:53:59;;;;;;;4.65;1.00;;;13.90;99.90;;;13.06;100.00;98369.22;5022871;28;20263;-64
2022/07/10 04:56:26;;;;;;;5.47;1.42;;;14.00;99.90;;;12.80;100.00;98377.25;5021607;28;20046;-64
2022/07/10 04:58:53;;;;;;;4.88;1.40;;;13.80;99.90;;;12.87;100.00;98374.31;5007943;28;20056;-64
2022/07/10 05:01:20;;;;;;;7.13;1.60;;;13.80;99.90;;;12.84;100.00;98381.41;5022944;28;20691;-63
2022/07/10 05:03:47;;;;;;;5.05;1.27;;;13.80;99.90;;;12.88;100.00;98385.59;5006510;28;20520;-64
2022/07/10 05:06:15;;;;;;;3.85;1.08;;;13.80;99.90;;;12.88;100.00;98378.63;5022736;28;20055;-63
2022/07/10 05:08:42;;;;;;;5.72;1.40;;;13.80;99.90;;;12.89;100.00;98385.53;5024397;28;20151;-64
2022/07/10 05:11:09;;;;;;;7.32;1.40;;;13.90;99.90;;;12.96;100.00;98378.34;5023187;28;20049;-62
2022/07/10 05:13:36;;;;;;;4.45;1.20;;;13.90;99.90;;;12.92;100.00;98389.78;5023613;28;20056;-65
2022/07/10 05:16:05;;;;;;;5.03;1.50;;;13.80;99.90;;;12.83;100.00;98385.78;5023434;28;20042;-64
2022/07/10 05:18:32;;;;;;;3.25;0.93;;;13.80;99.90;;;12.82;100.00;98378.00;5021857;28;20402;-64
2022/07/10 05:20:59;;;;;;;4.93;0.90;;;13.90;99.90;;;12.80;100.00;98380.69;5024650;28;20041;-64
2022/07/10 05:23:26;;;;;;;4.18;1.27;;;13.80;99.90;;;12.80;100.00;98379.84;5026914;28;20059;-64
2022/07/10 05:25:53;;;;;;;7.28;1.20;;;13.70;99.90;;;12.83;100.00;98383.16;5022961;28;20449;-64
2022/07/10 05:28:20;;;;;;;5.13;1.00;;;13.70;99.90;;;13.04;100.00;98391.88;5023312;28;20049;-65
2022/07/10 05:30:48;;;;;;;5.95;0.88;;;13.80;99.90;;;13.18;100.00;98391.34;5023005;28;20111;-63
2022/07/10 05:33:16;;;;;;;5.28;1.00;;;14.00;99.90;;;13.22;100.00;98392.91;5025229;28;20041;-64
2022/07/10 05:35:44;;;;;;;7.85;1.20;;;14.20;99.90;;;13.35;100.00;98390.72;5022347;28;20153;-66
2022/07/10 05:38:11;;;;;;;4.25;0.82;;;14.30;99.90;;;13.26;100.00;98398.88;5020905;28;20117;-65
2022/07/10 05:40:38;;;;;;;5.20;0.88;;;14.30;99.90;;;13.31;100.00;98399.56;5023227;28;20152;-66
2022/07/10 05:43:11;;;;;;;5.05;0.98;;;14.40;99.90;;;13.42;100.00;98392.16;5023313;28;20404;-66
2022/07/10 05:45:38;;;;;;;7.43;1.15;;;14.60;99.90;;;13.27;100.00;98393.56;5022200;28;20059;-65
2022/07/10 05:48:11;;;;;;;;;;;14.70;99.90;;;13.43;100.00;98393.84;5025062;28;20068;-61
2022/07/10 05:50:37;;;;;;;7.65;0.90;;;14.70;99.90;;;13.34;100.00;98397.69;5022078;28;19929;-65
2022/07/10 05:53:04;;;;;;;5.43;1.00;;;14.50;99.90;;;13.30;100.00;98401.31;5023493;28;20631;-66
2022/07/10 05:55:31;;;;;;;4.50;0.73;;;14.50;99.90;;;13.59;100.00;98404.47;5024978;28;20077;-66
2022/07/10 05:57:59;;;;;;;7.32;1.15;;;14.50;99.90;;;13.59;100.00;98404.47;5007357;28;20136;-66
2022/07/10 06:00:25;;;;;;;6.57;0.98;;;14.60;99.90;;;13.70;100.00;98393.59;5023434;28;20457;-62
2022/07/10 06:02:52;;;;;;;3.35;0.73;;;14.80;99.90;;;13.81;100.00;98397.44;5023788;28;20061;-65
2022/07/10 06:05:19;;;;;;;6.70;0.93;;;14.80;99.90;;;13.93;100.00;98405.66;5023317;28;20228;-66
2022/07/10 06:07:46;;;;;;;5.10;0.82;;;14.90;99.90;;;14.06;100.00;98409.44;5020620;28;20132;-65
2022/07/10 06:10:14;;;;;;;4.38;0.90;;;15.10;99.90;;;13.99;100.00;98410.63;5025431;28;20144;-65
2022/07/10 06:12:41;;;;;;;5.80;0.65;;;15.20;99.90;;;14.00;100.00;98407.09;5022543;28;20046;-63
2022/07/10 06:15:08;;;;;;;2.10;0.63;;;15.10;99.90;;;14.08;100.00;98404.19;5024324;28;20050;-63
2022/07/10 06:17:42;;;;;;;10.02;0.70;;;15.30;99.90;;;14.04;100.00;98413.06;5020230;28;20045;-64
2022/07/10 06:20:10;;;;;;;7.50;0.60;;;15.40;99.90;;;14.00;100.00;98405.38;5024059;28;20062;-63
2022/07/10 06:22:37;;;;;;;5.35;0.77;;;15.30;99.90;;;13.87;100.00;98409.41;5022315;28;20049;-63
2022/07/10 06:25:06;;;;;;;3.17;0.77;;;15.20;99.90;;;14.01;100.00;98414.03;5022509;28;20043;-66
2022/07/10 06:27:33;;;;;;;5.93;0.80;;;15.10;99.90;;;14.02;100.00;98413.09;5023570;28;20053;-65
2022/07/10 06:30:00;;;;;;;5.72;0.90;;;15.10;99.90;;;13.97;100.00;98413.31;5022799;28;20123;-66
2022/07/10 06:32:27;;;;;;;4.13;0.70;;;15.10;99.90;;;14.36;100.00;98416.84;5027208;28;20045;-66
2022/07/10 06:34:55;;;;;;;5.75;0.88;;;15.30;99.90;;;14.34;100.00;98413.47;5025793;28;20088;-66
2022/07/10 06:37:22;;;;;;;3.78;0.65;;;15.50;99.90;;;14.72;100.00;98411.75;5026632;28;20048;-62
2022/07/10 06:39:50;;;;;;;5.32;0.65;;;15.70;99.90;;;14.96;100.00;98403.69;5026787;28;20048;-62
2022/07/10 06:42:17;;;;;;;3.58;0.70;;;16.00;99.90;;;14.79;100.00;98409.72;5025799;28;20038;-66
2022/07/10 06:44:45;;;;;;;5.57;1.00;;;16.00;99.90;;;14.54;100.00;98405.59;5026031;28;20128;-66
2022/07/10 06:50:01;;;;;;;5.20;0.95;;;15.70;99.90;;;14.71;100.00;98404.84;5024045;28;20509;-62
2022/07/10 06:52:28;;;;;;;3.85;0.80;;;15.90;99.90;;;14.60;100.00;98400.13;5025819;28;20473;-65
2022/07/10 06:54:55;;;;;;;4.15;0.77;;;16.10;99.90;;;14.70;100.00;98412.75;5025577;28;20049;-66
2022/07/10 06:57:22;;;;;;;3.13;0.60;;;16.10;99.90;;;14.41;100.00;98402.69;5022532;28;20053;-64
2022/07/10 06:59:49;;;;;;;4.70;0.70;;;15.80;99.90;;;14.48;100.00;98402.41;5027028;28;20051;-62
2022/07/10 07:02:17;;;;;;;6.53;0.73;;;15.70;99.90;;;14.28;100.00;98406.75;5024102;28;20513;-61
2022/07/10 07:04:45;;;;;;;8.40;0.93;;;15.70;99.90;;;14.04;100.00;98411.28;5025040;28;20077;-62
2022/07/10 07:07:13;;;;;;;6.70;0.75;;;15.30;99.90;;;14.02;100.00;98413.09;5025943;28;20450;-61
2022/07/10 07:09:42;;;;;;;3.30;0.60;;;15.30;99.90;;;14.12;100.00;98406.59;5026261;28;20060;-63
2022/07/10 07:12:09;;;;;;;5.13;0.70;;;15.20;99.90;;;14.12;100.00;98405.75;5024949;28;20050;-65
2022/07/10 07:14:39;;;;;;;4.90;0.90;;;15.30;99.90;;;14.05;100.00;98405.16;5023662;28;20049;-62
2022/07/10 07:17:12;;;;;;;3.92;0.70;;;15.20;99.90;;;14.04;100.00;98403.44;5024622;28;20137;-64
2022/07/10 07:25:11;;;;;;;2.35;0.52;;;15.70;99.90;;;15.10;100.00;98395.19;5027435;28;20142;-63
2022/07/10 07:27:39;;;;;;;3.70;0.60;;;16.10;99.90;;;15.46;100.00;98396.03;5024443;28;20050;-64
2022/07/10 07:30:12;;;;;;;2.88;0.68;;;16.60;99.90;;;15.53;100.00;98391.34;5024780;28;20154;-63
2022/07/10 07:32:39;;;;;;;4.03;0.60;;;16.60;99.90;;;15.47;100.00;98400.34;5025744;28;20121;-63
2022/07/10 07:35:07;;;;;;;3.50;0.60;;;16.60;99.90;;;15.72;100.00;98401.78;5025843;28;20046;-64
2022/07/10 07:37:43;;;;;;;6.07;0.55;;;16.80;99.90;;;15.89;100.00;98403.53;5023756;28;20128;-63
2022/07/10 07:40:14;;;;;;;5.90;0.70;;;16.90;99.90;;;15.85;100.00;98408.09;5025736;28;20052;-64
2022/07/10 07:42:42;;;;;;;3.90;0.50;;;17.20;99.90;;;15.85;100.00;98408.09;5024174;28;20167;-63
2022/07/10 07:45:09;;;;;;;8.07;0.60;;;17.20;99.90;;;15.69;100.00;98396.63;5023590;28;20179;-62
2022/07/10 07:47:49;;;;;;;5.40;0.60;;;17.10;99.90;;;15.71;100.00;98405.28;5026121;28;20050;-64
2022/07/10 07:50:20;;;;;;;3.13;0.50;;;17.00;99.90;;;16.19;100.00;98408.09;5025353;28;20049;-63
2022/07/10 07:52:48;;;;;;;2.45;0.45;;;17.30;99.90;;;16.82;100.00;98408.25;5025259;28;20045;-63
2022/07/10 07:55:17;;;;;;;5.63;0.88;;;17.80;99.90;;;16.64;100.00;98402.19;5026793;28;20124;-63
2022/07/10 07:57:45;;;;;;;2.42;0.55;;;18.00;99.90;;;16.64;100.00;98394.34;5023605;28;20505;-65
2022/07/10 08:00:17;;;;;;;5.50;0.60;;;17.90;99.90;;;16.54;100.00;98408.03;5022131;28;20140;-66
2022/07/10 08:02:44;;;;;;;5.83;0.70;;;17.90;99.90;;;16.48;100.00;98406.56;5026287;28;20302;-65
2022/07/10 08:05:12;;;;;;;3.83;0.50;;;17.80;99.90;;;16.87;100.00;98415.88;5008066;28;20053;-64
2022/07/10 08:07:45;;;;;;;5.30;0.70;;;18.00;99.90;;;16.87;100.00;98421.94;5023731;28;20128;-64
2022/07/10 08:10:18;;;;;;;13.43;0.68;;;18.20;99.90;;;17.04;100.00;98401.84;5027330;28;20045;-65
2022/07/10 08:12:46;;;;;;;1.73;0.45;;;18.30;99.90;;;16.88;100.00;98400.06;5005928;28;20041;-65
2022/07/10 08:15:16;;;;;;;1.90;0.32;;;18.50;99.90;;;16.76;100.00;98405.09;5025643;28;20482;-65
2022/07/10 08:17:47;;;;;;;3.70;0.50;;;18.30;99.90;;;16.73;100.00;98403.47;5027309;28;20053;-66
2022/07/10 08:20:14;;;;;;;2.05;0.50;;;18.10;99.90;;;16.58;100.00;98393.81;5025671;28;20080;-64
2022/07/10 08:22:42;;;;;;;2.38;0.40;;;18.00;99.90;;;16.86;100.00;98380.94;5023554;28;20176;-66
2022/07/10 08:25:10;;;;;;;1.70;0.50;;;18.00;99.90;;;17.01;100.00;98394.13;5020916;28;20049;-65
2022/07/10 08:27:37;;;;;;;2.83;0.57;;;18.10;99.90;;;17.28;100.00;98392.56;5022326;28;20514;-65
2022/07/10 08:30:06;;;;;;;3.78;0.40;;;18.30;99.90;;;17.80;100.00;98396.59;5027124;28;20132;-66
2022/07/10 08:32:33;;;;;;;2.78;0.40;;;18.70;99.90;;;17.91;100.00;98396.00;5025961;28;20076;-66
2022/07/10 08:35:00;;;;;;;1.48;0.40;;;19.10;99.90;;;17.77;100.00;98387.09;5020324;28;20079;-66
2022/07/10 08:37:27;;;;;;;3.22;0.40;;;19.20;99.90;;;17.36;100.00;98392.16;5025683;28;20053;-66
2022/07/10 08:39:54;;;;;;;2.10;0.40;;;18.90;99.90;;;16.92;100.00;98390.22;5025541;28;20140;-67
2022/07/10 08:42:22;;;;;;;5.47;0.60;;;18.30;99.90;;;17.07;100.00;98389.38;5021252;28;20148;-64
2022/07/10 08:44:51;;;;;;;3.60;0.52;;;18.10;99.90;;;16.75;100.00;98395.53;5008151;28;20132;-66
2022/07/10 08:47:22;;;;;;;4.63;0.52;;;18.00;99.90;;;17.27;100.00;98388.25;5023017;28;20140;-66
2022/07/10 08:49:50;;;;;;;3.70;0.52;;;18.20;99.90;;;17.38;100.00;98392.03;5019994;28;20411;-63
2022/07/10 08:52:43;;;;;;;3.00;0.50;;;18.40;99.90;;;16.82;100.00;98403.00;5022340;28;20144;-62
2022/07/10 08:55:14;;;;;;;3.90;0.63;;;18.20;99.90;;;16.66;100.00;98407.38;5024135;28;20049;-64
2022/07/10 08:57:43;;;;;;;2.92;0.43;;;18.10;99.90;;;16.52;100.00;98398.47;5023305;28;20041;-64
2022/07/10 09:00:11;;;;;;;3.25;0.50;;;17.90;99.90;;;16.64;100.00;98396.13;5022012;28;20413;-64
2022/07/10 09:02:38;;;;;;;3.38;0.43;;;17.80;99.90;;;16.51;100.00;98394.16;5019909;28;20129;-64
2022/07/10 09:05:08;;;;;;;3.20;0.40;;;18.00;99.90;;;17.05;100.00;98388.63;5018377;28;20135;-64
2022/07/10 09:07:41;;;;;;;2.85;0.50;;;18.10;99.90;;;16.79;100.00;98389.19;5019601;28;20073;-63
2022/07/10 09:10:10;;;;;;;2.40;0.50;;;18.10;99.90;;;17.17;100.00;98383.63;5023901;28;20054;-64
2022/07/10 09:12:57;;;;;;;3.75;0.50;;;18.40;99.90;;;17.42;100.00;98383.91;5020429;28;20057;-64
2022/07/10 09:15:29;;;;;;;3.30;0.43;;;18.70;99.90;;;18.44;100.00;98376.13;5005401;28;20136;-64
2022/07/10 09:18:05;;;;;;;2.28;0.50;;;19.30;99.90;;;18.77;100.00;98370.56;5020330;28;20473;-65
2022/07/10 09:20:38;;;;;;;4.85;0.50;;;19.50;99.90;;;18.67;100.00;98374.66;5019997;28;20798;-64
2022/07/10 09:23:18;;;;;;;5.57;0.60;;;19.20;99.90;;;19.22;100.00;98365.91;5022499;28;20148;-64
2022/07/10 09:25:47;;;;;;;3.58;0.50;;;20.10;99.60;;;18.79;100.00;98366.06;5005462;28;20145;-65
2022/07/10 09:28:18;;;;;;;4.32;0.60;;;20.20;98.60;;;18.52;100.00;98379.13;5021918;28;20552;-63
2022/07/10 09:30:47;;;;;;;3.22;0.60;;;20.20;97.70;;;18.74;100.00;98372.50;5021242;28;20077;-63
2022/07/10 09:33:36;;;;;;;3.40;0.60;;;20.20;97.90;;;19.44;100.00;98367.97;5022621;28;20088;-64
2022/07/10 09:36:10;;;;;;;2.40;0.43;;;20.60;98.70;;;20.73;100.00;98358.31;5021691;28;20049;-64
2022/07/10 09:38:43;;;;;;;4.45;0.60;;;21.10;97.10;;;20.39;100.00;98371.25;5021674;28;20045;-65
2022/07/10 09:41:29;;;;;;;3.22;0.50;;;21.10;96.30;;;20.20;100.00;98369.03;5022877;28;20505;-64
2022/07/10 09:44:03;;;;;;;3.22;0.43;;;21.30;95.20;;;20.86;100.00;98364.38;5022747;28;20141;-64
2022/07/10 09:46:35;;;;;;;2.50;0.40;;;21.40;94.60;;;21.27;100.00;98347.31;5020681;28;20145;-65
2022/07/10 09:49:05;;;;;;;;;;;21.50;94.30;;;20.89;100.00;98358.03;5020991;28;20505;-65
2022/07/10 09:51:39;;;;;;;2.00;0.50;;;21.40;93.90;;;21.92;100.00;98359.19;5023905;28;20012;-63
2022/07/10 09:54:15;;;;;;;3.10;0.50;;;21.90;94.90;;;21.70;100.00;98367.91;5019817;28;20492;-65
2022/07/10 09:56:48;;;;;;;1.67;0.40;;;22.10;93.90;;;20.70;100.00;98371.72;5018200;28;20492;-64
2022/07/10 09:59:20;;;;;;;2.00;0.40;;;22.00;92.90;;;21.15;100.00;98363.25;5022990;28;20073;-65
2022/07/10 10:01:50;;;;;;;2.25;0.40;;;22.10;92.90;;;22.11;100.00;98349.84;5017925;28;20107;-63
2022/07/10 10:04:20;;;;;;;7.05;0.65;;;22.10;92.80;;;21.96;100.00;98343.94;5017830;28;20049;-63
2022/07/10 10:06:52;;;;;;;2.70;0.43;;;22.10;92.90;;;21.90;100.00;98350.53;5002000;28;20053;-65
2022/07/10 10:09:24;;;;;;;4.22;0.50;;;22.20;93.10;;;21.65;100.00;98348.94;5023947;28;20068;-64
2022/07/10 10:12:00;;;;;;;3.45;0.60;;;21.90;91.90;;;21.37;100.00;98346.63;5006034;28;20062;-65
2022/07/10 10:14:28;;;;;;;2.33;0.40;;;21.80;91.90;;;22.47;100.00;98338.22;5023750;28;20069;-64
2022/07/10 10:17:00;;;;;;;1.67;0.35;;;22.20;92.20;;;22.87;100.00;98331.53;5023415;28;20077;-64
2022/07/10 10:22:19;;;;;;;3.10;0.70;;;23.10;92.10;;;23.66;100.00;98326.78;5025957;28;20045;-63
2022/07/10 10:24:48;;;;;;;3.13;0.52;;;23.20;92.00;;;22.63;100.00;98323.78;5024571;28;20473;-62
2022/07/10 10:27:15;;;;;;;3.53;0.68;;;23.10;90.70;;;21.84;100.00;98344.88;5021367;28;20053;-63
2022/07/10 10:29:44;;;;;;;2.70;0.40;;;23.10;90.20;;;22.98;100.00;98329.69;5024385;28;20050;-62
2022/07/10 10:32:11;;;;;;;4.32;0.60;;;23.00;90.00;;;23.35;100.00;98331.16;5023583;28;20056;-64
2022/07/10 10:34:56;;;;;;;3.40;0.38;;;22.80;90.60;;;22.70;100.00;98330.25;5024093;28;20041;-61